sensor_id;sensor_type;location;lat;lon;timestamp;temperature;humidity
10802;DHT22;5453;50.852;7.102;2022-08-06T00:00:54;18.30;91.20
10802;DHT22;5453;50.852;7.102;2022-08-06T00:03:26;18.20;91.10
10802;DHT22;5453;50.852;7.102;2022-08-06T00:06:00;18.20;91.10
10802;DHT22;5453;50.852;7.102;2022-08-06T00:08:32;18.20;91.20
10802;DHT22;5453;50.852;7.102;2022-08-06T00:11:04;18.10;91.20
10802;DHT22;5453;50.852;7.102;2022-08-06T00:13:36;18.10;91.30
10802;DHT22;5453;50.852;7.102;2022-08-06T00:16:09;18.10;91.40
10802;DHT22;5453;50.852;7.102;2022-08-06T00:18:41;18.00;91.40
10802;DHT22;5453;50.852;7.102;2022-08-06T00:21:15;18.00;91.50
10802;DHT22;5453;50.852;7.102;2022-08-06T00:23:48;17.90;91.50
10802;DHT22;5453;50.852;7.102;2022-08-06T00:26:20;17.90;91.60
10802;DHT22;5453;50.852;7.102;2022-08-06T00:28:54;17.90;91.70
10802;DHT22;5453;50.852;7.102;2022-08-06T00:31:27;17.90;91.80
10802;DHT22;5453;50.852;7.102;2022-08-06T00:33:59;17.80;91.90
10802;DHT22;5453;50.852;7.102;2022-08-06T00:36:35;17.80;92.00
10802;DHT22;5453;50.852;7.102;2022-08-06T00:39:08;17.80;92.10
10802;DHT22;5453;50.852;7.102;2022-08-06T00:41:40;17.70;92.30
10802;DHT22;5453;50.852;7.102;2022-08-06T00:44:12;17.70;92.70
10802;DHT22;5453;50.852;7.102;2022-08-06T00:46:45;17.70;92.60
10802;DHT22;5453;50.852;7.102;2022-08-06T00:49:17;17.60;92.80
10802;DHT22;5453;50.852;7.102;2022-08-06T00:51:51;17.60;93.10
10802;DHT22;5453;50.852;7.102;2022-08-06T00:54:23;17.60;93.70
10802;DHT22;5453;50.852;7.102;2022-08-06T00:56:55;17.60;93.60
10802;DHT22;5453;50.852;7.102;2022-08-06T00:59:27;17.50;93.80
10802;DHT22;5453;50.852;7.102;2022-08-06T01:02:00;17.40;94.10
10802;DHT22;5453;50.852;7.102;2022-08-06T01:04:32;17.40;94.40
10802;DHT22;5453;50.852;7.102;2022-08-06T01:07:05;17.30;94.70
10802;DHT22;5453;50.852;7.102;2022-08-06T01:09:37;17.30;95.00
10802;DHT22;5453;50.852;7.102;2022-08-06T01:12:10;17.20;95.40
10802;DHT22;5453;50.852;7.102;2022-08-06T01:14:42;17.20;95.60
10802;DHT22;5453;50.852;7.102;2022-08-06T01:17:19;17.10;95.70
10802;DHT22;5453;50.852;7.102;2022-08-06T01:20:01;17.00;95.90
10802;DHT22;5453;50.852;7.102;2022-08-06T01:23:02;17.00;96.30
10802;DHT22;5453;50.852;7.102;2022-08-06T01:26:02;16.90;96.60
10802;DHT22;5453;50.852;7.102;2022-08-06T01:28:58;16.80;96.80
10802;DHT22;5453;50.852;7.102;2022-08-06T01:31:34;16.80;96.80
10802;DHT22;5453;50.852;7.102;2022-08-06T01:34:25;16.70;96.90
10802;DHT22;5453;50.852;7.102;2022-08-06T01:37:05;16.60;97.10
10802;DHT22;5453;50.852;7.102;2022-08-06T01:39:43;16.60;97.30
10802;DHT22;5453;50.852;7.102;2022-08-06T01:42:19;16.50;97.50
10802;DHT22;5453;50.852;7.102;2022-08-06T01:44:54;16.50;97.80
10802;DHT22;5453;50.852;7.102;2022-08-06T01:47:32;16.50;98.00
10802;DHT22;5453;50.852;7.102;2022-08-06T01:50:07;16.40;98.10
10802;DHT22;5453;50.852;7.102;2022-08-06T01:52:42;16.40;98.30
10802;DHT22;5453;50.852;7.102;2022-08-06T01:55:15;16.40;98.50
10802;DHT22;5453;50.852;7.102;2022-08-06T01:57:51;16.40;98.60
10802;DHT22;5453;50.852;7.102;2022-08-06T02:00:27;16.30;98.70
10802;DHT22;5453;50.852;7.102;2022-08-06T02:03:02;16.30;98.90
10802;DHT22;5453;50.852;7.102;2022-08-06T02:05:45;16.30;99.00
10802;DHT22;5453;50.852;7.102;2022-08-06T02:08:18;16.20;99.50
10802;DHT22;5453;50.852;7.102;2022-08-06T02:10:54;16.20;99.40
10802;DHT22;5453;50.852;7.102;2022-08-06T02:13:28;16.10;99.60
10802;DHT22;5453;50.852;7.102;2022-08-06T02:16:06;16.10;99.90
10802;DHT22;5453;50.852;7.102;2022-08-06T02:18:44;16.20;99.90
10802;DHT22;5453;50.852;7.102;2022-08-06T02:21:19;16.20;99.90
10802;DHT22;5453;50.852;7.102;2022-08-06T02:23:53;16.20;99.90
10802;DHT22;5453;50.852;7.102;2022-08-06T02:26:27;16.20;99.90
10802;DHT22;5453;50.852;7.102;2022-08-06T02:29:02;16.10;99.90
10802;DHT22;5453;50.852;7.102;2022-08-06T02:31:37;16.10;99.90
10802;DHT22;5453;50.852;7.102;2022-08-06T02:34:09;16.10;99.90
10802;DHT22;5453;50.852;7.102;2022-08-06T02:36:44;16.00;99.90
10802;DHT22;5453;50.852;7.102;2022-08-06T02:39:22;15.90;99.90
10802;DHT22;5453;50.852;7.102;2022-08-06T02:42:01;15.80;99.90
10802;DHT22;5453;50.852;7.102;2022-08-06T02:44:45;15.80;99.90
10802;DHT22;5453;50.852;7.102;2022-08-06T02:47:25;15.70;99.90
10802;DHT22;5453;50.852;7.102;2022-08-06T02:50:01;15.70;99.90
10802;DHT22;5453;50.852;7.102;2022-08-06T02:52:39;15.70;99.90
10802;DHT22;5453;50.852;7.102;2022-08-06T02:55:15;15.60;99.90
10802;DHT22;5453;50.852;7.102;2022-08-06T02:57:52;15.60;99.90
10802;DHT22;5453;50.852;7.102;2022-08-06T03:00:27;15.50;99.90
10802;DHT22;5453;50.852;7.102;2022-08-06T03:03:04;15.50;99.90
10802;DHT22;5453;50.852;7.102;2022-08-06T03:05:42;15.40;99.90
10802;DHT22;5453;50.852;7.102;2022-08-06T03:08:18;15.40;99.90
10802;DHT22;5453;50.852;7.102;2022-08-06T03:10:54;15.30;99.90
10802;DHT22;5453;50.852;7.102;2022-08-06T03:13:28;15.30;99.90
10802;DHT22;5453;50.852;7.102;2022-08-06T03:16:01;15.30;99.90
10802;DHT22;5453;50.852;7.102;2022-08-06T03:18:37;15.20;99.90
10802;DHT22;5453;50.852;7.102;2022-08-06T03:21:09;15.20;99.90
10802;DHT22;5453;50.852;7.102;2022-08-06T03:23:42;15.20;99.90
10802;DHT22;5453;50.852;7.102;2022-08-06T03:26:15;15.10;99.90
10802;DHT22;5453;50.852;7.102;2022-08-06T03:28:49;15.10;99.90
10802;DHT22;5453;50.852;7.102;2022-08-06T03:31:22;15.10;99.90
10802;DHT22;5453;50.852;7.102;2022-08-06T03:33:57;15.00;99.90
10802;DHT22;5453;50.852;7.102;2022-08-06T03:36:30;15.00;99.90
10802;DHT22;5453;50.852;7.102;2022-08-06T03:39:05;15.00;99.90
10802;DHT22;5453;50.852;7.102;2022-08-06T03:41:39;15.00;99.90
10802;DHT22;5453;50.852;7.102;2022-08-06T03:44:12;14.90;99.90
10802;DHT22;5453;50.852;7.102;2022-08-06T03:46:48;14.90;99.90
10802;DHT22;5453;50.852;7.102;2022-08-06T03:49:30;14.90;99.90
10802;DHT22;5453;50.852;7.102;2022-08-06T03:52:07;15.00;99.90
10802;DHT22;5453;50.852;7.102;2022-08-06T03:54:44;15.00;99.90
10802;DHT22;5453;50.852;7.102;2022-08-06T03:57:22;14.90;99.90
10802;DHT22;5453;50.852;7.102;2022-08-06T03:59:58;14.90;99.90
10802;DHT22;5453;50.852;7.102;2022-08-06T04:02:33;14.80;99.90
10802;DHT22;5453;50.852;7.102;2022-08-06T04:05:11;14.80;99.90
10802;DHT22;5453;50.852;7.102;2022-08-06T04:07:43;14.70;99.90
10802;DHT22;5453;50.852;7.102;2022-08-06T04:10:17;14.70;99.90
10802;DHT22;5453;50.852;7.102;2022-08-06T04:12:50;14.70;99.90
10802;DHT22;5453;50.852;7.102;2022-08-06T04:15:23;14.60;99.90
10802;DHT22;5453;50.852;7.102;2022-08-06T04:17:56;14.60;99.90
10802;DHT22;5453;50.852;7.102;2022-08-06T04:20:29;14.50;99.90
10802;DHT22;5453;50.852;7.102;2022-08-06T04:23:04;14.50;99.90
10802;DHT22;5453;50.852;7.102;2022-08-06T04:25:39;14.50;99.90
10802;DHT22;5453;50.852;7.102;2022-08-06T04:28:14;14.50;99.90
10802;DHT22;5453;50.852;7.102;2022-08-06T04:30:48;14.50;99.90
10802;DHT22;5453;50.852;7.102;2022-08-06T04:33:23;14.50;99.90
10802;DHT22;5453;50.852;7.102;2022-08-06T04:35:59;14.50;99.90
10802;DHT22;5453;50.852;7.102;2022-08-06T04:38:35;14.50;99.90
10802;DHT22;5453;50.852;7.102;2022-08-06T04:41:08;14.60;99.90
10802;DHT22;5453;50.852;7.102;2022-08-06T04:43:40;14.60;99.90
10802;DHT22;5453;50.852;7.102;2022-08-06T04:46:13;14.60;99.90
10802;DHT22;5453;50.852;7.102;2022-08-06T04:48:45;14.70;99.90
10802;DHT22;5453;50.852;7.102;2022-08-06T04:51:22;14.60;99.90
10802;DHT22;5453;50.852;7.102;2022-08-06T04:53:54;14.70;99.90
10802;DHT22;5453;50.852;7.102;2022-08-06T04:56:26;14.70;99.90
10802;DHT22;5453;50.852;7.102;2022-08-06T04:58:58;14.80;99.90
10802;DHT22;5453;50.852;7.102;2022-08-06T05:01:30;14.80;99.90
10802;DHT22;5453;50.852;7.102;2022-08-06T05:04:03;14.90;99.90
10802;DHT22;5453;50.852;7.102;2022-08-06T05:06:46;15.00;99.90
10802;DHT22;5453;50.852;7.102;2022-08-06T05:09:24;15.10;99.90
10802;DHT22;5453;50.852;7.102;2022-08-06T05:12:02;15.00;99.90
10802;DHT22;5453;50.852;7.102;2022-08-06T05:14:39;15.10;99.90
10802;DHT22;5453;50.852;7.102;2022-08-06T05:17:15;15.00;99.90
10802;DHT22;5453;50.852;7.102;2022-08-06T05:19:53;15.00;99.90
10802;DHT22;5453;50.852;7.102;2022-08-06T05:22:31;15.20;99.90
10802;DHT22;5453;50.852;7.102;2022-08-06T05:25:05;15.40;99.90
10802;DHT22;5453;50.852;7.102;2022-08-06T05:27:39;15.70;99.90
10802;DHT22;5453;50.852;7.102;2022-08-06T05:30:12;16.00;99.90
10802;DHT22;5453;50.852;7.102;2022-08-06T05:32:47;16.20;99.90
10802;DHT22;5453;50.852;7.102;2022-08-06T05:35:20;16.50;99.90
10802;DHT22;5453;50.852;7.102;2022-08-06T05:37:54;16.70;99.90
10802;DHT22;5453;50.852;7.102;2022-08-06T05:40:26;16.90;99.90
10802;DHT22;5453;50.852;7.102;2022-08-06T05:43:04;17.10;99.90
10802;DHT22;5453;50.852;7.102;2022-08-06T05:45:36;17.30;99.90
10802;DHT22;5453;50.852;7.102;2022-08-06T05:48:11;17.50;99.90
10802;DHT22;5453;50.852;7.102;2022-08-06T05:50:49;17.70;99.50
10802;DHT22;5453;50.852;7.102;2022-08-06T05:53:34;17.80;99.00
10802;DHT22;5453;50.852;7.102;2022-08-06T05:56:10;17.90;98.60
10802;DHT22;5453;50.852;7.102;2022-08-06T05:58:50;18.10;98.40
10802;DHT22;5453;50.852;7.102;2022-08-06T06:01:25;18.20;98.10
10802;DHT22;5453;50.852;7.102;2022-08-06T06:03:58;18.40;97.80
10802;DHT22;5453;50.852;7.102;2022-08-06T06:06:31;18.50;97.20
10802;DHT22;5453;50.852;7.102;2022-08-06T06:09:05;18.60;97.40
10802;DHT22;5453;50.852;7.102;2022-08-06T06:11:38;18.80;97.40
10802;DHT22;5453;50.852;7.102;2022-08-06T06:14:24;18.90;96.60
10802;DHT22;5453;50.852;7.102;2022-08-06T06:17:12;19.00;96.10
10802;DHT22;5453;50.852;7.102;2022-08-06T06:19:58;19.10;95.80
10802;DHT22;5453;50.852;7.102;2022-08-06T06:22:43;19.20;95.20
10802;DHT22;5453;50.852;7.102;2022-08-06T06:25:24;19.20;94.80
10802;DHT22;5453;50.852;7.102;2022-08-06T06:28:04;19.30;94.70
10802;DHT22;5453;50.852;7.102;2022-08-06T06:30:46;19.40;94.50
10802;DHT22;5453;50.852;7.102;2022-08-06T06:33:31;19.40;94.40
10802;DHT22;5453;50.852;7.102;2022-08-06T06:36:19;19.60;94.10
10802;DHT22;5453;50.852;7.102;2022-08-06T06:38:59;19.80;93.70
10802;DHT22;5453;50.852;7.102;2022-08-06T06:41:41;20.00;93.50
10802;DHT22;5453;50.852;7.102;2022-08-06T06:44:23;20.10;93.10
10802;DHT22;5453;50.852;7.102;2022-08-06T06:47:01;20.30;93.80
10802;DHT22;5453;50.852;7.102;2022-08-06T06:49:37;20.50;93.50
10802;DHT22;5453;50.852;7.102;2022-08-06T06:52:25;20.60;92.90
10802;DHT22;5453;50.852;7.102;2022-08-06T06:55:02;20.80;92.40
10802;DHT22;5453;50.852;7.102;2022-08-06T06:57:43;20.80;92.10
10802;DHT22;5453;50.852;7.102;2022-08-06T07:00:17;20.80;91.60
10802;DHT22;5453;50.852;7.102;2022-08-06T07:02:51;20.90;91.20
10802;DHT22;5453;50.852;7.102;2022-08-06T07:05:24;21.00;90.50
10802;DHT22;5453;50.852;7.102;2022-08-06T07:07:57;21.00;90.00
10802;DHT22;5453;50.852;7.102;2022-08-06T07:10:31;21.00;89.70
10802;DHT22;5453;50.852;7.102;2022-08-06T07:13:07;21.00;89.10
10802;DHT22;5453;50.852;7.102;2022-08-06T07:15:42;21.00;89.30
10802;DHT22;5453;50.852;7.102;2022-08-06T07:18:15;21.10;88.90
10802;DHT22;5453;50.852;7.102;2022-08-06T07:20:48;21.20;86.40
10802;DHT22;5453;50.852;7.102;2022-08-06T07:23:20;21.10;86.20
10802;DHT22;5453;50.852;7.102;2022-08-06T07:25:54;21.20;86.80
10802;DHT22;5453;50.852;7.102;2022-08-06T07:28:29;21.30;86.80
10802;DHT22;5453;50.852;7.102;2022-08-06T07:31:04;21.40;86.10
10802;DHT22;5453;50.852;7.102;2022-08-06T07:33:39;21.50;85.00
10802;DHT22;5453;50.852;7.102;2022-08-06T07:36:16;21.50;84.80
10802;DHT22;5453;50.852;7.102;2022-08-06T07:41:29;21.80;84.40
10802;DHT22;5453;50.852;7.102;2022-08-06T07:44:05;21.90;83.10
10802;DHT22;5453;50.852;7.102;2022-08-06T07:46:41;22.00;82.80
10802;DHT22;5453;50.852;7.102;2022-08-06T07:49:21;22.20;82.90
10802;DHT22;5453;50.852;7.102;2022-08-06T07:51:56;22.30;82.50
10802;DHT22;5453;50.852;7.102;2022-08-06T07:54:30;22.30;81.30
10802;DHT22;5453;50.852;7.102;2022-08-06T07:57:03;22.30;80.90
10802;DHT22;5453;50.852;7.102;2022-08-06T07:59:38;22.40;81.20
10802;DHT22;5453;50.852;7.102;2022-08-06T08:02:12;22.60;80.50
10802;DHT22;5453;50.852;7.102;2022-08-06T08:04:46;22.70;80.10
10802;DHT22;5453;50.852;7.102;2022-08-06T08:07:36;22.90;79.10
10802;DHT22;5453;50.852;7.102;2022-08-06T08:10:09;23.10;77.80
10802;DHT22;5453;50.852;7.102;2022-08-06T08:12:43;23.30;77.30
10802;DHT22;5453;50.852;7.102;2022-08-06T08:15:18;23.50;76.30
10802;DHT22;5453;50.852;7.102;2022-08-06T08:17:51;23.80;75.50
10802;DHT22;5453;50.852;7.102;2022-08-06T08:20:23;23.90;73.40
10802;DHT22;5453;50.852;7.102;2022-08-06T08:22:57;24.30;72.60
10802;DHT22;5453;50.852;7.102;2022-08-06T08:25:29;24.50;71.40
10802;DHT22;5453;50.852;7.102;2022-08-06T08:28:01;24.70;69.90
10802;DHT22;5453;50.852;7.102;2022-08-06T08:30:36;25.00;69.40
10802;DHT22;5453;50.852;7.102;2022-08-06T08:33:09;25.30;68.00
10802;DHT22;5453;50.852;7.102;2022-08-06T08:35:42;25.70;66.90
10802;DHT22;5453;50.852;7.102;2022-08-06T08:38:14;26.10;65.40
10802;DHT22;5453;50.852;7.102;2022-08-06T08:40:47;26.50;64.40
10802;DHT22;5453;50.852;7.102;2022-08-06T08:43:25;26.80;62.50
10802;DHT22;5453;50.852;7.102;2022-08-06T08:46:01;27.00;61.60
10802;DHT22;5453;50.852;7.102;2022-08-06T08:48:35;27.60;60.60
10802;DHT22;5453;50.852;7.102;2022-08-06T08:51:09;28.10;59.00
10802;DHT22;5453;50.852;7.102;2022-08-06T08:53:48;28.40;58.40
10802;DHT22;5453;50.852;7.102;2022-08-06T08:56:25;28.70;57.50
10802;DHT22;5453;50.852;7.102;2022-08-06T08:58:58;28.90;56.00
10802;DHT22;5453;50.852;7.102;2022-08-06T09:01:33;29.30;54.40
10802;DHT22;5453;50.852;7.102;2022-08-06T09:04:06;29.60;54.20
10802;DHT22;5453;50.852;7.102;2022-08-06T09:06:39;29.90;53.00
10802;DHT22;5453;50.852;7.102;2022-08-06T09:09:11;30.30;52.60
10802;DHT22;5453;50.852;7.102;2022-08-06T09:11:43;30.40;51.50
10802;DHT22;5453;50.852;7.102;2022-08-06T09:14:16;30.50;50.90
10802;DHT22;5453;50.852;7.102;2022-08-06T09:16:49;30.80;50.60
10802;DHT22;5453;50.852;7.102;2022-08-06T09:19:22;30.70;49.50
10802;DHT22;5453;50.852;7.102;2022-08-06T09:21:54;30.70;49.60
10802;DHT22;5453;50.852;7.102;2022-08-06T09:24:27;30.70;50.20
10802;DHT22;5453;50.852;7.102;2022-08-06T09:27:04;30.50;50.10
10802;DHT22;5453;50.852;7.102;2022-08-06T09:29:49;30.30;50.60
10802;DHT22;5453;50.852;7.102;2022-08-06T09:32:38;30.20;50.70
10802;DHT22;5453;50.852;7.102;2022-08-06T09:35:16;29.90;51.30
10802;DHT22;5453;50.852;7.102;2022-08-06T09:37:59;29.50;51.40
10802;DHT22;5453;50.852;7.102;2022-08-06T09:40:32;29.10;51.80
10802;DHT22;5453;50.852;7.102;2022-08-06T09:43:04;28.70;52.50
10802;DHT22;5453;50.852;7.102;2022-08-06T09:45:44;28.30;53.00
10802;DHT22;5453;50.852;7.102;2022-08-06T09:48:18;28.00;53.10
10802;DHT22;5453;50.852;7.102;2022-08-06T09:50:50;27.60;53.40
10802;DHT22;5453;50.852;7.102;2022-08-06T09:53:23;27.10;54.20
10802;DHT22;5453;50.852;7.102;2022-08-06T09:55:57;26.70;55.50
10802;DHT22;5453;50.852;7.102;2022-08-06T09:58:31;26.20;55.60
10802;DHT22;5453;50.852;7.102;2022-08-06T10:01:13;25.90;56.40
10802;DHT22;5453;50.852;7.102;2022-08-06T10:03:47;25.80;56.70
10802;DHT22;5453;50.852;7.102;2022-08-06T10:06:20;25.70;56.70
10802;DHT22;5453;50.852;7.102;2022-08-06T10:09:05;25.80;57.20
10802;DHT22;5453;50.852;7.102;2022-08-06T10:11:40;25.90;56.70
10802;DHT22;5453;50.852;7.102;2022-08-06T10:14:21;26.10;56.50
10802;DHT22;5453;50.852;7.102;2022-08-06T10:17:04;25.90;55.80
10802;DHT22;5453;50.852;7.102;2022-08-06T10:19:41;25.60;55.90
10802;DHT22;5453;50.852;7.102;2022-08-06T10:22:16;25.30;56.90
10802;DHT22;5453;50.852;7.102;2022-08-06T10:24:50;25.00;57.30
10802;DHT22;5453;50.852;7.102;2022-08-06T10:27:29;24.90;57.10
10802;DHT22;5453;50.852;7.102;2022-08-06T10:30:06;24.60;57.50
10802;DHT22;5453;50.852;7.102;2022-08-06T10:32:45;24.40;57.80
10802;DHT22;5453;50.852;7.102;2022-08-06T10:35:23;24.40;57.50
10802;DHT22;5453;50.852;7.102;2022-08-06T10:38:03;24.50;57.50
10802;DHT22;5453;50.852;7.102;2022-08-06T10:40:37;24.70;57.30
10802;DHT22;5453;50.852;7.102;2022-08-06T10:43:10;24.90;56.80
10802;DHT22;5453;50.852;7.102;2022-08-06T10:45:43;25.00;55.10
10802;DHT22;5453;50.852;7.102;2022-08-06T10:48:16;25.10;54.10
10802;DHT22;5453;50.852;7.102;2022-08-06T10:50:50;25.20;54.50
10802;DHT22;5453;50.852;7.102;2022-08-06T10:53:24;25.20;55.50
10802;DHT22;5453;50.852;7.102;2022-08-06T10:56:00;25.10;56.10
10802;DHT22;5453;50.852;7.102;2022-08-06T10:58:35;24.90;56.20
10802;DHT22;5453;50.852;7.102;2022-08-06T11:01:10;24.80;56.60
10802;DHT22;5453;50.852;7.102;2022-08-06T11:04:03;24.80;57.00
10802;DHT22;5453;50.852;7.102;2022-08-06T11:07:17;24.90;56.00
10802;DHT22;5453;50.852;7.102;2022-08-06T11:10:14;25.00;55.40
10802;DHT22;5453;50.852;7.102;2022-08-06T11:12:57;25.10;55.00
10802;DHT22;5453;50.852;7.102;2022-08-06T11:15:35;25.30;53.60
10802;DHT22;5453;50.852;7.102;2022-08-06T11:18:09;25.30;53.60
10802;DHT22;5453;50.852;7.102;2022-08-06T11:20:44;25.40;52.50
10802;DHT22;5453;50.852;7.102;2022-08-06T11:23:33;25.30;53.20
10802;DHT22;5453;50.852;7.102;2022-08-06T11:26:06;25.20;53.70
10802;DHT22;5453;50.852;7.102;2022-08-06T11:28:59;25.00;54.40
10802;DHT22;5453;50.852;7.102;2022-08-06T11:31:37;24.70;55.40
10802;DHT22;5453;50.852;7.102;2022-08-06T11:34:12;24.50;56.10
10802;DHT22;5453;50.852;7.102;2022-08-06T11:36:47;24.30;56.40
10802;DHT22;5453;50.852;7.102;2022-08-06T11:39:24;24.20;56.50
10802;DHT22;5453;50.852;7.102;2022-08-06T11:41:59;24.40;56.50
10802;DHT22;5453;50.852;7.102;2022-08-06T11:44:34;24.60;55.10
10802;DHT22;5453;50.852;7.102;2022-08-06T11:47:12;24.90;54.50
10802;DHT22;5453;50.852;7.102;2022-08-06T11:49:48;25.30;54.10
10802;DHT22;5453;50.852;7.102;2022-08-06T11:52:41;25.40;53.20
10802;DHT22;5453;50.852;7.102;2022-08-06T11:55:15;25.30;52.50
10802;DHT22;5453;50.852;7.102;2022-08-06T11:57:47;25.00;52.50
10802;DHT22;5453;50.852;7.102;2022-08-06T12:00:21;24.80;53.00
10802;DHT22;5453;50.852;7.102;2022-08-06T12:02:57;24.60;54.80
10802;DHT22;5453;50.852;7.102;2022-08-06T12:05:38;24.50;55.00
10802;DHT22;5453;50.852;7.102;2022-08-06T12:08:24;24.50;53.70
10802;DHT22;5453;50.852;7.102;2022-08-06T12:11:31;24.80;53.00
10802;DHT22;5453;50.852;7.102;2022-08-06T12:14:05;24.90;52.80
10802;DHT22;5453;50.852;7.102;2022-08-06T12:17:10;24.80;52.10
10802;DHT22;5453;50.852;7.102;2022-08-06T12:19:43;24.50;52.60
10802;DHT22;5453;50.852;7.102;2022-08-06T12:22:18;24.30;53.10
10802;DHT22;5453;50.852;7.102;2022-08-06T12:24:53;24.10;53.20
10802;DHT22;5453;50.852;7.102;2022-08-06T12:27:32;24.20;53.50
10802;DHT22;5453;50.852;7.102;2022-08-06T12:30:06;24.30;53.00
10802;DHT22;5453;50.852;7.102;2022-08-06T12:32:39;24.40;53.30
10802;DHT22;5453;50.852;7.102;2022-08-06T12:35:11;24.60;53.10
10802;DHT22;5453;50.852;7.102;2022-08-06T12:37:45;24.80;52.10
10802;DHT22;5453;50.852;7.102;2022-08-06T12:40:19;24.90;51.90
10802;DHT22;5453;50.852;7.102;2022-08-06T12:43:10;25.10;51.30
10802;DHT22;5453;50.852;7.102;2022-08-06T12:45:43;25.20;52.10
10802;DHT22;5453;50.852;7.102;2022-08-06T12:48:15;25.10;51.80
10802;DHT22;5453;50.852;7.102;2022-08-06T12:50:47;24.90;52.00
10802;DHT22;5453;50.852;7.102;2022-08-06T12:53:19;24.80;52.30
10802;DHT22;5453;50.852;7.102;2022-08-06T12:55:53;24.60;52.60
10802;DHT22;5453;50.852;7.102;2022-08-06T12:58:31;24.50;52.90
10802;DHT22;5453;50.852;7.102;2022-08-06T13:01:06;24.50;53.20
10802;DHT22;5453;50.852;7.102;2022-08-06T13:03:42;24.50;52.90
10802;DHT22;5453;50.852;7.102;2022-08-06T13:06:17;24.70;53.00
10802;DHT22;5453;50.852;7.102;2022-08-06T13:08:52;24.90;52.20
10802;DHT22;5453;50.852;7.102;2022-08-06T13:11:32;25.10;51.80
10802;DHT22;5453;50.852;7.102;2022-08-06T13:14:22;25.10;52.00
10802;DHT22;5453;50.852;7.102;2022-08-06T13:16:54;25.00;52.20
10802;DHT22;5453;50.852;7.102;2022-08-06T13:19:26;24.80;53.00
10802;DHT22;5453;50.852;7.102;2022-08-06T13:22:00;24.60;53.90
10802;DHT22;5453;50.852;7.102;2022-08-06T13:24:34;24.40;53.40
10802;DHT22;5453;50.852;7.102;2022-08-06T13:27:06;24.30;54.10
10802;DHT22;5453;50.852;7.102;2022-08-06T13:29:58;24.30;53.40
10802;DHT22;5453;50.852;7.102;2022-08-06T13:32:30;24.50;53.70
10802;DHT22;5453;50.852;7.102;2022-08-06T13:35:05;24.60;53.50
10802;DHT22;5453;50.852;7.102;2022-08-06T13:37:46;24.80;53.30
10802;DHT22;5453;50.852;7.102;2022-08-06T13:43:14;24.80;52.60
10802;DHT22;5453;50.852;7.102;2022-08-06T13:45:48;24.70;52.40
10802;DHT22;5453;50.852;7.102;2022-08-06T13:48:23;24.80;52.00
10802;DHT22;5453;50.852;7.102;2022-08-06T13:50:56;24.80;51.90
10802;DHT22;5453;50.852;7.102;2022-08-06T13:53:28;24.90;51.60
10802;DHT22;5453;50.852;7.102;2022-08-06T13:56:00;25.00;51.30
10802;DHT22;5453;50.852;7.102;2022-08-06T13:58:32;24.90;51.10
10802;DHT22;5453;50.852;7.102;2022-08-06T14:01:06;24.80;51.40
10802;DHT22;5453;50.852;7.102;2022-08-06T14:03:38;24.60;51.60
10802;DHT22;5453;50.852;7.102;2022-08-06T14:06:10;24.50;51.90
10802;DHT22;5453;50.852;7.102;2022-08-06T14:08:42;24.50;52.60
10802;DHT22;5453;50.852;7.102;2022-08-06T14:11:15;24.50;52.30
10802;DHT22;5453;50.852;7.102;2022-08-06T14:13:47;24.60;52.00
10802;DHT22;5453;50.852;7.102;2022-08-06T14:16:20;24.70;52.40
10802;DHT22;5453;50.852;7.102;2022-08-06T14:18:53;24.70;52.10
10802;DHT22;5453;50.852;7.102;2022-08-06T14:21:25;24.80;51.40
10802;DHT22;5453;50.852;7.102;2022-08-06T14:23:58;24.90;51.90
10802;DHT22;5453;50.852;7.102;2022-08-06T14:26:30;25.00;51.40
10802;DHT22;5453;50.852;7.102;2022-08-06T14:29:02;25.10;51.20
10802;DHT22;5453;50.852;7.102;2022-08-06T14:31:36;25.20;51.10
10802;DHT22;5453;50.852;7.102;2022-08-06T14:34:08;25.10;50.30
10802;DHT22;5453;50.852;7.102;2022-08-06T14:36:40;25.10;50.70
10802;DHT22;5453;50.852;7.102;2022-08-06T14:39:12;25.00;50.80
10802;DHT22;5453;50.852;7.102;2022-08-06T14:41:46;24.90;51.20
10802;DHT22;5453;50.852;7.102;2022-08-06T14:44:36;24.90;51.10
10802;DHT22;5453;50.852;7.102;2022-08-06T14:47:29;24.80;50.80
10802;DHT22;5453;50.852;7.102;2022-08-06T14:50:01;24.90;50.80
10802;DHT22;5453;50.852;7.102;2022-08-06T14:52:35;24.90;51.30
10802;DHT22;5453;50.852;7.102;2022-08-06T14:55:08;24.80;51.30
10802;DHT22;5453;50.852;7.102;2022-08-06T14:57:40;24.70;52.00
10802;DHT22;5453;50.852;7.102;2022-08-06T15:00:13;24.50;50.80
10802;DHT22;5453;50.852;7.102;2022-08-06T15:02:47;24.40;51.10
10802;DHT22;5453;50.852;7.102;2022-08-06T15:05:21;24.30;51.10
10802;DHT22;5453;50.852;7.102;2022-08-06T15:07:53;24.40;51.40
10802;DHT22;5453;50.852;7.102;2022-08-06T15:10:25;24.50;51.50
10802;DHT22;5453;50.852;7.102;2022-08-06T15:12:57;24.60;51.80
10802;DHT22;5453;50.852;7.102;2022-08-06T15:15:30;24.60;52.30
10802;DHT22;5453;50.852;7.102;2022-08-06T15:18:04;24.70;52.30
10802;DHT22;5453;50.852;7.102;2022-08-06T15:20:36;24.70;51.90
10802;DHT22;5453;50.852;7.102;2022-08-06T15:23:08;24.70;51.80
10802;DHT22;5453;50.852;7.102;2022-08-06T15:25:40;24.80;50.60
10802;DHT22;5453;50.852;7.102;2022-08-06T15:28:13;24.70;50.40
10802;DHT22;5453;50.852;7.102;2022-08-06T15:30:46;24.70;50.40
10802;DHT22;5453;50.852;7.102;2022-08-06T15:33:20;24.60;50.70
10802;DHT22;5453;50.852;7.102;2022-08-06T15:35:53;24.60;50.40
10802;DHT22;5453;50.852;7.102;2022-08-06T15:38:26;24.60;51.10
10802;DHT22;5453;50.852;7.102;2022-08-06T15:40:59;24.70;51.60
10802;DHT22;5453;50.852;7.102;2022-08-06T15:43:32;24.70;51.50
10802;DHT22;5453;50.852;7.102;2022-08-06T15:46:06;24.70;51.30
10802;DHT22;5453;50.852;7.102;2022-08-06T15:48:39;24.70;50.80
10802;DHT22;5453;50.852;7.102;2022-08-06T15:51:13;24.70;51.10
10802;DHT22;5453;50.852;7.102;2022-08-06T15:53:47;24.60;50.50
10802;DHT22;5453;50.852;7.102;2022-08-06T15:56:19;24.50;51.10
10802;DHT22;5453;50.852;7.102;2022-08-06T15:58:52;24.50;50.70
10802;DHT22;5453;50.852;7.102;2022-08-06T16:01:24;24.50;50.70
10802;DHT22;5453;50.852;7.102;2022-08-06T16:03:58;24.40;50.30
10802;DHT22;5453;50.852;7.102;2022-08-06T16:06:30;24.40;51.20
10802;DHT22;5453;50.852;7.102;2022-08-06T16:09:03;24.40;50.70
10802;DHT22;5453;50.852;7.102;2022-08-06T16:11:35;24.30;50.70
10802;DHT22;5453;50.852;7.102;2022-08-06T16:14:08;24.30;50.40
10802;DHT22;5453;50.852;7.102;2022-08-06T16:16:40;24.30;50.10
10802;DHT22;5453;50.852;7.102;2022-08-06T16:19:13;24.20;50.40
10802;DHT22;5453;50.852;7.102;2022-08-06T16:21:45;24.30;50.40
10802;DHT22;5453;50.852;7.102;2022-08-06T16:24:17;24.20;50.80
10802;DHT22;5453;50.852;7.102;2022-08-06T16:26:50;24.20;50.20
10802;DHT22;5453;50.852;7.102;2022-08-06T16:29:22;24.20;51.00
10802;DHT22;5453;50.852;7.102;2022-08-06T16:31:55;24.10;51.10
10802;DHT22;5453;50.852;7.102;2022-08-06T16:34:28;24.10;52.00
10802;DHT22;5453;50.852;7.102;2022-08-06T16:37:01;24.00;52.20
10802;DHT22;5453;50.852;7.102;2022-08-06T16:39:33;23.90;52.60
10802;DHT22;5453;50.852;7.102;2022-08-06T16:42:06;23.90;52.80
10802;DHT22;5453;50.852;7.102;2022-08-06T16:44:39;23.80;53.10